createdAt,value
2024-05-09T00:00:18.517Z,1382.00
2024-05-09T00:01:15.047Z,1382.00
2024-05-09T00:02:14.089Z,1382.00
2024-05-09T00:03:14.022Z,1381.00
2024-05-09T00:04:13.965Z,1382.00
2024-05-09T00:05:14.069Z,1387.00
2024-05-09T00:06:14.027Z,1375.00
2024-05-09T00:07:13.871Z,1376.00
2024-05-09T00:08:13.935Z,1374.00
2024-05-09T00:09:13.850Z,1374.00
2024-05-09T00:10:22.398Z,1364.00
2024-05-09T00:11:14.898Z,1364.00
2024-05-09T00:12:13.923Z,1366.00
2024-05-09T00:13:13.750Z,1367.00
2024-05-09T00:14:13.788Z,1369.00
2024-05-09T00:15:13.707Z,1369.00
2024-05-09T00:16:13.678Z,1368.00
2024-05-09T00:17:13.758Z,1363.00
2024-05-09T00:18:13.786Z,1363.00
2024-05-09T00:19:13.760Z,1363.00
2024-05-09T00:20:20.188Z,1361.00
2024-05-09T00:21:14.630Z,1362.00
2024-05-09T00:22:13.588Z,1363.00
2024-05-09T00:23:14.061Z,1366.00
2024-05-09T00:24:13.582Z,1368.00
2024-05-09T00:25:13.537Z,1372.00
2024-05-09T00:26:13.597Z,1368.00
2024-05-09T00:27:13.586Z,1369.00
2024-05-09T00:28:13.523Z,1371.00
2024-05-09T00:29:13.528Z,1369.00
2024-05-09T00:30:21.002Z,1366.00
2024-05-09T00:31:14.448Z,1366.00
2024-05-09T00:32:13.496Z,1367.00
2024-05-09T00:33:13.667Z,1368.00
2024-05-09T00:34:13.471Z,1370.00
2024-05-09T00:35:13.387Z,1372.00
2024-05-09T00:36:13.370Z,1370.00
2024-05-09T00:37:13.337Z,1371.00
2024-05-09T00:38:13.353Z,1371.00
2024-05-09T00:39:13.331Z,1372.00
2024-05-09T00:40:18.756Z,1372.00
2024-05-09T00:41:16.315Z,1371.00
2024-05-09T00:42:13.264Z,1371.00
2024-05-09T00:43:14.389Z,1372.00
2024-05-09T00:44:13.380Z,1376.00
2024-05-09T00:45:13.206Z,1377.00
2024-05-09T00:46:13.224Z,1377.00
2024-05-09T00:47:13.302Z,1376.00
2024-05-09T00:48:15.356Z,1374.00
2024-05-09T00:49:13.196Z,1375.00
2024-05-09T00:50:19.228Z,1375.00
2024-05-09T00:51:13.190Z,1375.00
2024-05-09T00:52:13.093Z,1374.00
2024-05-09T00:53:13.179Z,1372.00
2024-05-09T00:54:13.045Z,1366.00
2024-05-09T00:55:13.025Z,1368.00
2024-05-09T00:56:13.062Z,1358.00
2024-05-09T00:57:12.974Z,1355.00
2024-05-09T00:58:12.958Z,1359.00
2024-05-09T00:59:13.024Z,1354.00
2024-05-09T01:00:22.567Z,1352.00
2024-05-09T01:01:14.000Z,1353.00
2024-05-09T01:02:12.976Z,1353.00
2024-05-09T01:03:14.246Z,1354.00
2024-05-09T01:04:12.915Z,1354.00
2024-05-09T01:05:12.947Z,1352.00
2024-05-09T01:06:12.822Z,1356.00
2024-05-09T01:07:12.804Z,1354.00
2024-05-09T01:08:12.903Z,1352.00
2024-05-09T01:09:12.779Z,1349.00
2024-05-09T01:10:17.432Z,1355.00
2024-05-09T01:11:13.804Z,1355.00
2024-05-09T01:12:12.841Z,1355.00
2024-05-09T01:13:12.788Z,1354.00
2024-05-09T01:14:12.693Z,1353.00
2024-05-09T01:15:12.686Z,1353.00
2024-05-09T01:16:12.636Z,1349.00
2024-05-09T01:17:13.163Z,1353.00
2024-05-09T01:18:13.704Z,1352.00
2024-05-09T01:19:12.722Z,1355.00
2024-05-09T01:20:19.826Z,1350.00
2024-05-09T01:21:13.846Z,1350.00
2024-05-09T01:22:12.518Z,1351.00
2024-05-09T01:23:13.359Z,1352.00
2024-05-09T01:24:12.491Z,1355.00
2024-05-09T01:25:12.466Z,1358.00
2024-05-09T01:26:12.515Z,1356.00
2024-05-09T01:27:12.489Z,1353.00
2024-05-09T01:28:12.524Z,1354.00
2024-05-09T01:29:12.603Z,1352.00
2024-05-09T01:31:12.457Z,1353.00
2024-05-09T01:32:12.587Z,1348.00
2024-05-09T01:33:13.207Z,1348.00
2024-05-09T01:34:12.463Z,1345.00
2024-05-09T01:35:12.479Z,1348.00
2024-05-09T01:36:12.411Z,1344.00
2024-05-09T01:37:12.405Z,1346.00
2024-05-09T01:38:12.428Z,1340.00
2024-05-09T01:39:12.374Z,1341.00
2024-05-09T01:40:18.394Z,1342.00
2024-05-09T01:41:13.427Z,1343.00
2024-05-09T01:42:12.357Z,1343.00
2024-05-09T01:43:12.481Z,1345.00
2024-05-09T01:44:12.363Z,1346.00
2024-05-09T01:45:12.307Z,1351.00
2024-05-09T01:46:12.278Z,1342.00
2024-05-09T01:47:12.365Z,1342.00
2024-05-09T01:48:12.451Z,1341.00
2024-05-09T01:49:12.490Z,1339.00
2024-05-09T01:50:16.333Z,1337.00
2024-05-09T01:51:12.224Z,1338.00
2024-05-09T01:52:12.165Z,1338.00
2024-05-09T01:53:12.662Z,1340.00
2024-05-09T01:54:12.121Z,1342.00
2024-05-09T01:55:12.076Z,1343.00
2024-05-09T01:56:12.182Z,1341.00
2024-05-09T01:57:12.050Z,1342.00
2024-05-09T01:58:11.994Z,1341.00
2024-05-09T01:59:11.984Z,1338.00
2024-05-09T02:00:15.638Z,1336.00
2024-05-09T02:01:12.021Z,1336.00
2024-05-09T02:02:12.081Z,1337.00
2024-05-09T02:03:14.704Z,1337.00
2024-05-09T02:04:13.063Z,1337.00
2024-05-09T02:05:12.080Z,1339.00
2024-05-09T02:06:11.918Z,1340.00
2024-05-09T02:07:11.830Z,1345.00
2024-05-09T02:08:11.807Z,1342.00
2024-05-09T02:09:11.746Z,1339.00
2024-05-09T02:10:20.036Z,1337.00
2024-05-09T02:11:12.875Z,1337.00
2024-05-09T02:12:11.798Z,1338.00
2024-05-09T02:13:11.645Z,1339.00
2024-05-09T02:14:11.671Z,1341.00
2024-05-09T02:15:11.607Z,1342.00
2024-05-09T02:16:11.593Z,1335.00
2024-05-09T02:17:11.628Z,1335.00
2024-05-09T02:18:12.009Z,1332.00
2024-05-09T02:19:11.721Z,1334.00
2024-05-09T02:20:18.789Z,1329.00
2024-05-09T02:21:12.538Z,1330.00
2024-05-09T02:22:11.474Z,1331.00
2024-05-09T02:23:11.549Z,1332.00
2024-05-09T02:24:11.413Z,1333.00
2024-05-09T02:25:11.384Z,1333.00
2024-05-09T02:26:11.473Z,1332.00
2024-05-09T02:27:11.332Z,1335.00
2024-05-09T02:28:11.326Z,1333.00
2024-05-09T02:29:11.474Z,1333.00
2024-05-09T02:30:18.795Z,1328.00
2024-05-09T02:31:11.348Z,1328.00
2024-05-09T02:32:11.716Z,1329.00
2024-05-09T02:33:13.358Z,1330.00
2024-05-09T02:34:11.467Z,1328.00
2024-05-09T02:35:11.392Z,1330.00
2024-05-09T02:36:11.151Z,1333.00
2024-05-09T02:37:11.146Z,1332.00
2024-05-09T02:38:11.287Z,1329.00
2024-05-09T02:39:11.118Z,1330.00
2024-05-09T02:40:14.745Z,1333.00
2024-05-09T02:41:12.123Z,1328.00
2024-05-09T02:42:11.053Z,1330.00
2024-05-09T02:43:11.762Z,1331.00
2024-05-09T02:44:11.030Z,1331.00
2024-05-09T02:45:10.965Z,1331.00
2024-05-09T02:46:10.966Z,1331.00
2024-05-09T02:47:10.986Z,1327.00
2024-05-09T02:48:11.670Z,1329.00
2024-05-09T02:49:11.044Z,1320.00
2024-05-09T02:50:13.440Z,1321.00
2024-05-09T02:51:11.929Z,1322.00
2024-05-09T02:52:10.833Z,1323.00
2024-05-09T02:53:10.873Z,1323.00
2024-05-09T02:54:10.790Z,1325.00
2024-05-09T02:55:10.768Z,1325.00
2024-05-09T02:56:10.790Z,1321.00
2024-05-09T02:57:10.742Z,1320.00
2024-05-09T02:58:10.878Z,1316.00
2024-05-09T02:59:10.778Z,1317.00
2024-05-09T03:00:18.464Z,1314.00
2024-05-09T03:01:11.812Z,1314.00
2024-05-09T03:02:10.766Z,1316.00
2024-05-09T03:03:12.973Z,1315.00
2024-05-09T03:04:10.639Z,1314.00
2024-05-09T03:05:10.595Z,1315.00
2024-05-09T03:06:10.519Z,1316.00
2024-05-09T03:07:10.516Z,1318.00
2024-05-09T03:08:10.675Z,1314.00
2024-05-09T03:09:10.465Z,1317.00
2024-05-09T03:10:18.298Z,1319.00
2024-05-09T03:11:11.568Z,1315.00
2024-05-09T03:12:10.556Z,1316.00
2024-05-09T03:13:10.391Z,1318.00
2024-05-09T03:14:10.415Z,1323.00
2024-05-09T03:15:10.329Z,1323.00
2024-05-09T03:16:10.329Z,1321.00
2024-05-09T03:17:10.414Z,1320.00
2024-05-09T03:18:10.520Z,1316.00
2024-05-09T03:19:10.380Z,1315.00
2024-05-09T03:20:17.518Z,1319.00
2024-05-09T03:21:11.356Z,1319.00
2024-05-09T03:22:10.220Z,1320.00
2024-05-09T03:23:10.543Z,1319.00
2024-05-09T03:24:10.181Z,1319.00
2024-05-09T03:25:10.179Z,1314.00
2024-05-09T03:26:10.191Z,1311.00
2024-05-09T03:27:10.133Z,1310.00
2024-05-09T03:28:10.101Z,1309.00
2024-05-09T03:29:10.114Z,1312.00
2024-05-09T03:30:10.156Z,1305.00
2024-05-09T03:31:10.046Z,1298.00
2024-05-09T03:32:10.109Z,1302.00
2024-05-09T03:33:10.512Z,1303.00
2024-05-09T03:34:10.020Z,1302.00
2024-05-09T03:35:10.001Z,1303.00
2024-05-09T03:36:11.269Z,1300.00
2024-05-09T03:37:09.964Z,1300.00
2024-05-09T03:38:10.135Z,1301.00
2024-05-09T03:39:09.894Z,1302.00
2024-05-09T03:40:17.526Z,1300.00
2024-05-09T03:41:10.892Z,1300.00
2024-05-09T03:42:09.848Z,1301.00
2024-05-09T03:43:09.823Z,1302.00
2024-05-09T03:44:09.898Z,1303.00
2024-05-09T03:45:09.804Z,1301.00
2024-05-09T03:46:09.769Z,1298.00
2024-05-09T03:47:09.781Z,1293.00
2024-05-09T03:48:09.989Z,1300.00
2024-05-09T03:49:09.785Z,1297.00
2024-05-09T03:50:18.012Z,1298.00
2024-05-09T03:51:10.768Z,1298.00
2024-05-09T03:52:09.668Z,1299.00
2024-05-09T03:53:09.734Z,1298.00
2024-05-09T03:54:09.630Z,1300.00
2024-05-09T03:55:09.599Z,1299.00
2024-05-09T03:56:09.626Z,1302.00
2024-05-09T03:57:09.574Z,1298.00
2024-05-09T03:58:09.573Z,1294.00
2024-05-09T03:59:09.617Z,1294.00
2024-05-09T04:00:17.796Z,1291.00
2024-05-09T04:01:10.545Z,1291.00
2024-05-09T04:02:09.549Z,1292.00
2024-05-09T04:03:11.662Z,1293.00
2024-05-09T04:04:09.503Z,1295.00
2024-05-09T04:05:09.439Z,1304.00
2024-05-09T04:06:09.428Z,1295.00
2024-05-09T04:07:09.412Z,1292.00
2024-05-09T04:08:09.782Z,1290.00
2024-05-09T04:09:09.359Z,1290.00
2024-05-09T04:10:16.787Z,1290.00
2024-05-09T04:11:10.441Z,1290.00
2024-05-09T04:12:09.433Z,1291.00
2024-05-09T04:13:09.341Z,1290.00
2024-05-09T04:14:09.383Z,1291.00
2024-05-09T04:15:12.879Z,1293.00
2024-05-09T04:16:09.307Z,1290.00
2024-05-09T04:17:09.350Z,1291.00
2024-05-09T04:18:09.521Z,1293.00
2024-05-09T04:19:09.377Z,1295.00
2024-05-09T04:20:12.460Z,1291.00
2024-05-09T04:21:10.413Z,1290.00
2024-05-09T04:22:09.234Z,1291.00
2024-05-09T04:23:09.670Z,1291.00
2024-05-09T04:24:09.188Z,1292.00
2024-05-09T04:25:16.405Z,600.00
2024-05-09T04:26:16.411Z,600.00
2024-05-09T04:27:16.405Z,600.00
2024-05-09T04:28:16.399Z,600.00
2024-05-09T04:29:16.498Z,600.00
2024-05-09T04:30:25.482Z,601.00
2024-05-09T04:31:28.519Z,600.00
2024-05-09T04:32:28.757Z,600.00
2024-05-09T04:33:28.712Z,600.00
2024-05-09T04:34:28.633Z,600.00
2024-05-09T04:35:28.630Z,600.00
2024-05-09T04:36:28.571Z,600.00
2024-05-09T04:37:29.112Z,601.00
2024-05-09T04:38:28.651Z,600.00
2024-05-09T04:39:28.641Z,600.00
2024-05-09T04:40:33.757Z,600.00
2024-05-09T04:41:29.679Z,600.00
2024-05-09T04:42:28.684Z,600.00
2024-05-09T04:43:28.696Z,601.00
2024-05-09T04:44:28.785Z,600.00
2024-05-09T04:45:28.713Z,599.00
2024-05-09T04:46:28.772Z,600.00
2024-05-09T04:47:28.808Z,601.00
2024-05-09T04:48:28.948Z,601.00
2024-05-09T04:49:28.891Z,602.00
2024-05-09T04:50:35.962Z,601.00
2024-05-09T04:51:29.857Z,601.00
2024-05-09T04:52:28.878Z,602.00
2024-05-09T04:53:28.926Z,599.00
2024-05-09T04:54:35.834Z,601.00
2024-05-09T04:55:29.922Z,601.00
2024-05-09T04:56:28.998Z,601.00
2024-05-09T04:57:28.962Z,601.00
2024-05-09T04:58:28.951Z,599.00
2024-05-09T04:59:28.998Z,598.00
2024-05-09T05:00:35.592Z,600.00
2024-05-09T05:01:30.165Z,600.00
2024-05-09T05:02:29.086Z,600.00
2024-05-09T05:03:29.240Z,601.00
2024-05-09T05:04:29.038Z,600.00
2024-05-09T05:05:29.076Z,600.00
2024-05-09T05:06:29.042Z,601.00
2024-05-09T05:07:29.057Z,601.00
2024-05-09T05:08:29.078Z,599.00
2024-05-09T05:09:29.067Z,600.00
2024-05-09T05:10:35.199Z,600.00
2024-05-09T05:11:30.168Z,600.00
2024-05-09T05:12:29.167Z,600.00
2024-05-09T05:13:29.129Z,600.00
2024-05-09T05:14:29.224Z,601.00
2024-05-09T05:15:29.163Z,600.00
2024-05-09T05:16:29.168Z,600.00
2024-05-09T05:17:29.529Z,601.00
2024-05-09T05:18:29.422Z,601.00
2024-05-09T05:19:29.382Z,602.00
2024-05-09T05:20:33.557Z,601.00
2024-05-09T05:21:30.344Z,601.00
2024-05-09T05:22:29.269Z,601.00
2024-05-09T05:23:29.316Z,601.00
2024-05-09T05:24:29.318Z,600.00
2024-05-09T05:25:29.306Z,601.00
2024-05-09T05:26:29.431Z,602.00
2024-05-09T05:27:29.325Z,602.00
2024-05-09T05:28:29.366Z,604.00
2024-05-09T05:29:29.443Z,602.00
2024-05-09T05:30:34.437Z,601.00
2024-05-09T05:31:30.548Z,601.00
2024-05-09T05:32:29.593Z,602.00
2024-05-09T05:33:29.656Z,601.00
2024-05-09T05:34:29.507Z,602.00
2024-05-09T05:35:29.598Z,600.00
2024-05-09T05:36:29.550Z,600.00
2024-05-09T05:37:29.555Z,601.00
2024-05-09T05:38:29.574Z,601.00
2024-05-09T05:39:29.654Z,600.00
2024-05-09T05:40:36.210Z,600.00
2024-05-09T05:41:30.849Z,600.00
2024-05-09T05:42:29.747Z,601.00
2024-05-09T05:43:29.778Z,601.00
2024-05-09T05:44:29.834Z,601.00
2024-05-09T05:45:29.796Z,602.00
2024-05-09T05:46:29.786Z,603.00
2024-05-09T05:47:29.991Z,601.00
2024-05-09T05:48:29.911Z,601.00
2024-05-09T05:49:29.926Z,600.00
2024-05-09T05:50:35.703Z,601.00
2024-05-09T05:51:30.891Z,601.00
2024-05-09T05:52:29.916Z,601.00
2024-05-09T05:53:30.020Z,599.00
2024-05-09T05:54:29.924Z,598.00
2024-05-09T05:55:29.959Z,597.00
2024-05-09T05:56:30.012Z,602.00
2024-05-09T05:57:29.981Z,600.00
2024-05-09T05:58:29.971Z,600.00
2024-05-09T05:59:30.111Z,600.00
2024-05-09T06:00:37.597Z,601.00
2024-05-09T06:01:31.246Z,601.00
2024-05-09T06:02:30.215Z,600.00
2024-05-09T06:03:30.248Z,601.00
2024-05-09T06:04:30.224Z,601.00
2024-05-09T06:05:30.197Z,599.00
2024-05-09T06:06:30.152Z,601.00
2024-05-09T06:07:30.159Z,602.00
2024-05-09T06:08:30.646Z,600.00
2024-05-09T06:09:30.217Z,602.00
2024-05-09T06:10:37.684Z,601.00
2024-05-09T06:11:31.438Z,601.00
2024-05-09T06:12:30.372Z,601.00
2024-05-09T06:13:30.325Z,602.00
2024-05-09T06:14:30.438Z,602.00
2024-05-09T06:15:30.364Z,604.00
2024-05-09T06:16:30.370Z,604.00
2024-05-09T06:17:30.507Z,604.00
2024-05-09T06:18:30.676Z,600.00
2024-05-09T06:19:30.732Z,603.00
2024-05-09T06:20:35.955Z,604.00
2024-05-09T06:21:31.488Z,604.00
2024-05-09T06:22:30.480Z,604.00
2024-05-09T06:23:30.519Z,605.00
2024-05-09T06:24:30.504Z,604.00
2024-05-09T06:25:30.497Z,602.00
2024-05-09T06:26:30.585Z,602.00
2024-05-09T06:27:30.508Z,600.00
2024-05-09T06:28:30.525Z,602.00
2024-05-09T06:29:30.631Z,601.00
2024-05-09T06:30:38.148Z,600.00
2024-05-09T06:31:31.605Z,600.00
2024-05-09T06:32:30.727Z,600.00
2024-05-09T06:33:30.858Z,600.00
2024-05-09T06:34:30.727Z,599.00
2024-05-09T06:35:30.927Z,598.00
2024-05-09T06:36:30.672Z,601.00
2024-05-09T06:37:30.698Z,601.00
2024-05-09T06:38:30.725Z,602.00
2024-05-09T06:39:30.696Z,602.00
2024-05-09T06:40:36.957Z,606.00
2024-05-09T06:41:31.743Z,606.00
2024-05-09T06:42:30.743Z,606.00
2024-05-09T06:43:30.761Z,606.00
2024-05-09T06:44:30.811Z,606.00
2024-05-09T06:45:30.777Z,606.00
2024-05-09T06:46:30.780Z,608.00
2024-05-09T06:47:31.002Z,605.00
2024-05-09T06:48:30.987Z,604.00
2024-05-09T06:49:30.961Z,605.00
2024-05-09T06:50:35.836Z,605.00
2024-05-09T06:51:31.850Z,605.00
2024-05-09T06:52:30.854Z,605.00
2024-05-09T06:53:30.891Z,606.00
2024-05-09T06:54:30.852Z,603.00
2024-05-09T06:55:30.926Z,605.00
2024-05-09T06:56:30.921Z,605.00
2024-05-09T06:57:31.156Z,607.00
2024-05-09T06:58:31.184Z,601.00
2024-05-09T06:59:30.955Z,604.00
2024-05-09T07:00:38.365Z,604.00
2024-05-09T07:01:31.947Z,604.00
2024-05-09T07:02:31.201Z,604.00
2024-05-09T07:03:31.053Z,598.00
2024-05-09T07:04:31.068Z,596.00
2024-05-09T07:05:30.983Z,603.00
2024-05-09T07:06:30.951Z,600.00
2024-05-09T07:07:31.021Z,601.00
2024-05-09T07:08:31.074Z,604.00
2024-05-09T07:09:31.001Z,600.00
2024-05-09T07:10:34.918Z,600.00
2024-05-09T07:11:32.071Z,600.00
2024-05-09T07:12:31.172Z,600.00
2024-05-09T07:13:31.028Z,601.00
2024-05-09T07:14:31.942Z,603.00
2024-05-09T07:15:31.058Z,605.00
2024-05-09T07:16:31.094Z,609.00
2024-05-09T07:17:31.296Z,605.00
2024-05-09T07:18:31.253Z,604.00
2024-05-09T07:19:31.172Z,602.00
2024-05-09T07:20:34.536Z,603.00
2024-05-09T07:21:31.104Z,603.00
2024-05-09T07:22:31.116Z,603.00
2024-05-09T07:23:31.169Z,604.00
2024-05-09T07:24:31.135Z,605.00
2024-05-09T07:25:31.691Z,606.00
2024-05-09T07:26:31.183Z,608.00
2024-05-09T07:27:31.169Z,605.00
2024-05-09T07:28:31.157Z,603.00
2024-05-09T07:29:31.422Z,600.00
2024-05-09T07:30:34.290Z,602.00
2024-05-09T07:31:31.214Z,602.00
2024-05-09T07:32:31.340Z,602.00
2024-05-09T07:33:31.339Z,600.00
2024-05-09T07:34:31.282Z,600.00
2024-05-09T07:35:31.650Z,605.00
2024-05-09T07:36:31.236Z,604.00
2024-05-09T07:37:31.232Z,604.00
2024-05-09T07:38:31.282Z,602.00
2024-05-09T07:39:31.250Z,603.00
2024-05-09T07:40:35.998Z,603.00
2024-05-09T07:41:31.327Z,603.00
2024-05-09T07:42:31.281Z,603.00
2024-05-09T07:43:31.327Z,605.00
2024-05-09T07:44:31.525Z,605.00
2024-05-09T07:45:48.025Z,608.00
2024-05-09T07:48:57.364Z,603.00
2024-05-09T07:50:33.279Z,603.00
2024-05-09T07:53:08.173Z,603.00
2024-05-09T07:53:33.077Z,603.00
2024-05-09T07:53:40.834Z,603.00
2024-05-09T07:54:31.542Z,603.00
2024-05-09T07:55:31.757Z,606.00
2024-05-09T07:56:32.029Z,610.00
2024-05-09T07:57:31.506Z,613.00
2024-05-09T07:58:31.480Z,615.00
2024-05-09T07:59:35.079Z,603.00
2024-05-09T08:00:32.508Z,603.00
2024-05-09T08:01:31.619Z,605.00
2024-05-09T08:02:31.621Z,608.00
2024-05-09T08:03:31.614Z,610.00
2024-05-09T08:04:31.575Z,615.00
2024-05-09T08:05:31.732Z,612.00
2024-05-09T08:06:31.538Z,609.00
2024-05-09T08:07:31.506Z,605.00
2024-05-09T08:08:31.498Z,607.00
2024-05-09T08:09:31.592Z,607.00
2024-05-09T08:10:31.663Z,607.00
2024-05-09T08:11:31.655Z,603.00
2024-05-09T08:12:31.637Z,601.00
2024-05-09T08:13:31.643Z,604.00
2024-05-09T08:14:31.690Z,605.00
2024-05-09T08:15:31.754Z,602.00
2024-05-09T08:16:31.785Z,603.00
2024-05-09T08:17:31.873Z,602.00
2024-05-09T08:18:32.250Z,604.00
2024-05-09T08:19:31.892Z,606.00
2024-05-09T08:20:35.194Z,603.00
2024-05-09T08:21:31.991Z,608.00
2024-05-09T08:22:31.918Z,604.00
2024-05-09T08:23:31.935Z,601.00
2024-05-09T08:24:31.944Z,605.00
2024-05-09T08:25:31.958Z,605.00
2024-05-09T08:26:31.955Z,606.00
2024-05-09T08:27:31.983Z,606.00
2024-05-09T08:28:32.006Z,608.00
2024-05-09T08:29:31.983Z,608.00
2024-05-09T08:30:36.575Z,609.00
2024-05-09T08:31:33.029Z,609.00
2024-05-09T08:32:32.085Z,609.00
2024-05-09T08:33:32.253Z,607.00
2024-05-09T08:34:32.061Z,607.00
2024-05-09T08:35:32.047Z,608.00
2024-05-09T08:36:32.054Z,609.00
2024-05-09T08:37:36.836Z,609.00
2024-05-09T08:38:33.053Z,609.00
2024-05-09T08:39:32.061Z,609.00
2024-05-09T08:40:35.446Z,603.00
2024-05-09T08:41:33.080Z,609.00
2024-05-09T08:42:32.139Z,608.00
2024-05-09T08:43:32.082Z,609.00
2024-05-09T08:44:32.055Z,607.00
2024-05-09T08:45:32.166Z,608.00
2024-05-09T08:46:32.117Z,607.00
2024-05-09T08:47:32.284Z,605.00
2024-05-09T08:48:32.298Z,606.00
2024-05-09T08:49:32.169Z,603.00
2024-05-09T08:50:38.331Z,601.00
2024-05-09T08:51:33.157Z,601.00
2024-05-09T08:52:32.095Z,602.00
2024-05-09T08:53:32.113Z,602.00
2024-05-09T08:54:32.129Z,604.00
2024-05-09T08:55:32.094Z,606.00
2024-05-09T08:56:32.093Z,603.00
2024-05-09T08:57:32.144Z,603.00
2024-05-09T08:58:32.130Z,602.00
2024-05-09T08:59:32.096Z,601.00
2024-05-09T09:00:36.911Z,603.00
2024-05-09T09:01:33.223Z,602.00
2024-05-09T09:02:32.196Z,603.00
2024-05-09T09:03:32.480Z,603.00
2024-05-09T09:04:32.185Z,603.00
2024-05-09T09:05:32.449Z,601.00
2024-05-09T09:06:32.157Z,603.00
2024-05-09T09:07:32.179Z,600.00
2024-05-09T09:08:32.110Z,603.00
2024-05-09T09:09:32.171Z,605.00
2024-05-09T09:10:33.215Z,602.00
2024-05-09T09:11:32.166Z,600.00
2024-05-09T09:12:32.165Z,604.00
2024-05-09T09:13:32.133Z,604.00
2024-05-09T09:14:32.113Z,605.00
2024-05-09T09:15:32.373Z,604.00
2024-05-09T09:16:32.164Z,604.00
2024-05-09T09:17:32.205Z,604.00
2024-05-09T09:18:32.340Z,606.00
2024-05-09T09:19:32.172Z,600.00
2024-05-09T09:20:36.474Z,604.00
2024-05-09T09:21:33.177Z,604.00
2024-05-09T09:22:32.139Z,604.00
2024-05-09T09:23:32.151Z,604.00
2024-05-09T09:24:32.178Z,605.00
2024-05-09T09:25:32.393Z,606.00
2024-05-09T09:26:32.134Z,605.00
2024-05-09T09:27:32.189Z,610.00
2024-05-09T09:28:32.164Z,607.00
2024-05-09T09:29:32.148Z,606.00
2024-05-09T09:30:36.985Z,607.00
2024-05-09T09:31:33.467Z,607.00
2024-05-09T09:32:32.272Z,605.00
2024-05-09T09:33:32.786Z,602.00
2024-05-09T09:34:32.494Z,608.00
2024-05-09T09:35:32.249Z,606.00
2024-05-09T09:36:32.200Z,607.00
2024-05-09T09:37:32.176Z,606.00
2024-05-09T09:38:32.170Z,611.00
2024-05-09T09:39:32.182Z,606.00
2024-05-09T09:40:34.050Z,609.00
2024-05-09T09:41:32.185Z,610.00
2024-05-09T09:42:32.192Z,609.00
2024-05-09T09:43:32.175Z,611.00
2024-05-09T09:44:32.922Z,610.00
2024-05-09T09:45:32.214Z,612.00
2024-05-09T09:46:32.236Z,610.00
2024-05-09T09:47:32.266Z,613.00
2024-05-09T09:48:32.436Z,616.00
2024-05-09T09:49:32.215Z,614.00
2024-05-09T09:50:34.784Z,612.00
2024-05-09T09:51:32.173Z,612.00
2024-05-09T09:52:32.156Z,612.00
2024-05-09T09:53:32.127Z,612.00
2024-05-09T09:54:32.143Z,613.00
2024-05-09T09:55:32.107Z,614.00
2024-05-09T09:56:32.111Z,615.00
2024-05-09T09:57:32.126Z,620.00
2024-05-09T09:58:32.197Z,617.00
2024-05-09T09:59:32.098Z,617.00
2024-05-09T10:00:33.446Z,619.00
2024-05-09T10:01:32.157Z,613.00
2024-05-09T10:02:32.309Z,614.00
2024-05-09T10:03:32.285Z,615.00
2024-05-09T10:04:32.206Z,617.00
2024-05-09T10:05:32.322Z,617.00
2024-05-09T10:06:32.134Z,613.00
2024-05-09T10:07:32.121Z,615.00
2024-05-09T10:08:32.101Z,616.00
2024-05-09T10:09:32.150Z,614.00
2024-05-09T10:10:33.243Z,615.00
2024-05-09T10:11:34.903Z,616.00
2024-05-09T10:12:33.222Z,616.00
2024-05-09T10:13:32.174Z,615.00
2024-05-09T10:14:32.147Z,616.00
2024-05-09T10:15:32.182Z,616.00
2024-05-09T10:16:32.192Z,616.00
2024-05-09T10:17:32.172Z,615.00
2024-05-09T10:18:34.285Z,617.00
2024-05-09T10:19:32.202Z,616.00
2024-05-09T10:20:32.959Z,614.00
2024-05-09T10:21:32.146Z,614.00
2024-05-09T10:22:32.143Z,616.00
2024-05-09T10:23:32.347Z,614.00
2024-05-09T10:24:32.207Z,615.00
2024-05-09T10:25:32.246Z,612.00
2024-05-09T10:26:32.205Z,616.00
2024-05-09T10:27:32.256Z,615.00
2024-05-09T10:28:32.249Z,613.00
2024-05-09T10:29:32.249Z,612.00
2024-05-09T10:30:35.982Z,614.00
2024-05-09T10:31:32.349Z,614.00
2024-05-09T10:32:32.325Z,615.00
2024-05-09T10:33:32.368Z,615.00
2024-05-09T10:34:32.356Z,616.00
2024-05-09T10:35:32.261Z,615.00
2024-05-09T10:36:32.325Z,612.00
2024-05-09T10:37:32.302Z,614.00
2024-05-09T10:38:32.275Z,614.00
2024-05-09T10:39:32.340Z,616.00
2024-05-09T10:40:32.426Z,613.00
2024-05-09T10:41:32.292Z,609.00
2024-05-09T10:42:32.305Z,608.00
2024-05-09T10:43:32.278Z,612.00
2024-05-09T10:44:32.294Z,609.00
2024-05-09T10:45:32.329Z,608.00
2024-05-09T10:46:32.289Z,608.00
2024-05-09T10:47:32.351Z,611.00
2024-05-09T10:48:32.399Z,612.00
2024-05-09T10:49:32.344Z,615.00
2024-05-09T10:50:34.415Z,616.00
2024-05-09T10:51:32.390Z,617.00
2024-05-09T10:52:32.346Z,615.00
2024-05-09T10:53:32.410Z,612.00
2024-05-09T10:54:32.490Z,616.00
2024-05-09T10:55:32.472Z,620.00
2024-05-09T10:56:32.417Z,620.00
2024-05-09T10:57:32.465Z,616.00
2024-05-09T10:58:32.493Z,617.00
2024-05-09T10:59:32.497Z,614.00
2024-05-09T11:00:35.898Z,619.00
2024-05-09T11:01:32.660Z,619.00
2024-05-09T11:02:32.823Z,618.00
2024-05-09T11:03:32.655Z,617.00
2024-05-09T11:04:32.549Z,619.00
2024-05-09T11:05:32.621Z,618.00
2024-05-09T11:06:32.569Z,619.00
2024-05-09T11:07:32.568Z,620.00
2024-05-09T11:08:32.820Z,620.00
2024-05-09T11:09:32.550Z,621.00
2024-05-09T11:10:34.364Z,622.00
2024-05-09T11:11:32.527Z,621.00
2024-05-09T11:12:32.530Z,623.00
2024-05-09T11:13:32.520Z,620.00
2024-05-09T11:14:32.536Z,622.00
2024-05-09T11:15:32.550Z,620.00
2024-05-09T11:16:32.681Z,622.00
2024-05-09T11:17:32.802Z,621.00
2024-05-09T11:18:36.520Z,620.00
2024-05-09T11:19:33.830Z,620.00
2024-05-09T11:20:35.037Z,620.00
2024-05-09T11:21:32.799Z,619.00
2024-05-09T11:22:32.733Z,615.00
2024-05-09T11:23:32.786Z,618.00
2024-05-09T11:24:32.830Z,621.00
2024-05-09T11:25:32.717Z,619.00
2024-05-09T11:26:32.734Z,614.00
2024-05-09T11:27:32.770Z,617.00
2024-05-09T11:28:32.765Z,619.00
2024-05-09T11:29:32.749Z,617.00
2024-05-09T11:30:32.842Z,616.00
2024-05-09T11:31:33.050Z,618.00
2024-05-09T11:32:33.026Z,618.00
2024-05-09T11:33:32.792Z,617.00
2024-05-09T11:34:32.911Z,616.00
2024-05-09T11:35:32.746Z,616.00
2024-05-09T11:36:32.905Z,615.00
2024-05-09T11:37:35.410Z,615.00
2024-05-09T11:38:32.751Z,615.00
2024-05-09T11:39:32.879Z,615.00
2024-05-09T11:40:34.553Z,608.00
2024-05-09T11:41:32.772Z,614.00
2024-05-09T11:42:32.870Z,614.00
2024-05-09T11:43:32.863Z,615.00
2024-05-09T11:44:32.732Z,613.00
2024-05-09T11:45:32.841Z,613.00
2024-05-09T11:46:32.819Z,611.00
2024-05-09T11:47:32.957Z,612.00
2024-05-09T11:48:33.115Z,608.00
2024-05-09T11:49:33.258Z,617.00
2024-05-09T11:50:35.861Z,609.00
2024-05-09T11:51:33.140Z,609.00
2024-05-09T11:52:33.100Z,608.00
2024-05-09T11:53:33.088Z,610.00
2024-05-09T11:54:33.095Z,609.00
2024-05-09T11:55:33.137Z,612.00
2024-05-09T11:56:33.077Z,609.00
2024-05-09T11:57:33.144Z,609.00
2024-05-09T11:58:33.071Z,606.00
2024-05-09T11:59:33.087Z,606.00
2024-05-09T12:00:37.043Z,608.00
2024-05-09T12:01:33.210Z,608.00
2024-05-09T12:02:33.174Z,607.00
2024-05-09T12:03:33.231Z,609.00
2024-05-09T12:04:33.232Z,610.00
2024-05-09T12:05:33.984Z,607.00
2024-05-09T12:06:33.149Z,608.00
2024-05-09T12:07:33.078Z,609.00
2024-05-09T12:08:33.120Z,612.00
2024-05-09T12:09:33.102Z,606.00
2024-05-09T12:10:35.542Z,612.00
2024-05-09T12:11:33.142Z,611.00
2024-05-09T12:12:35.472Z,611.00
2024-05-09T12:13:33.167Z,611.00
2024-05-09T12:14:33.063Z,612.00
2024-05-09T12:15:33.247Z,612.00
2024-05-09T12:16:33.357Z,614.00
2024-05-09T12:17:33.149Z,615.00
2024-05-09T12:18:33.147Z,613.00
2024-05-09T12:19:33.146Z,612.00
2024-05-09T12:20:37.314Z,610.00
2024-05-09T12:21:34.083Z,610.00
2024-05-09T12:22:33.039Z,610.00
2024-05-09T12:23:33.041Z,612.00
2024-05-09T12:24:33.092Z,613.00